sensor_id;sensor_type;location;lat;lon;timestamp;P1;durP1;ratioP1;P2;durP2;ratioP2
9224;SDS011;4647;48.072;11.616;2023-06-05T00:01:36;12.90;;;5.80;;
9224;SDS011;4647;48.072;11.616;2023-06-05T00:04:07;6.70;;;6.10;;
9224;SDS011;4647;48.072;11.616;2023-06-05T00:06:38;6.83;;;5.93;;
9224;SDS011;4647;48.072;11.616;2023-06-05T00:09:09;7.20;;;5.90;;
9224;SDS011;4647;48.072;11.616;2023-06-05T00:11:38;8.00;;;6.17;;
9224;SDS011;4647;48.072;11.616;2023-06-05T00:14:07;7.17;;;5.90;;
9224;SDS011;4647;48.072;11.616;2023-06-05T00:16:35;8.00;;;6.07;;
9224;SDS011;4647;48.072;11.616;2023-06-05T00:19:04;6.67;;;5.97;;
9224;SDS011;4647;48.072;11.616;2023-06-05T00:21:33;7.40;;;6.00;;
9224;SDS011;4647;48.072;11.616;2023-06-05T00:24:04;6.67;;;5.97;;
9224;SDS011;4647;48.072;11.616;2023-06-05T00:26:33;6.80;;;6.10;;
9224;SDS011;4647;48.072;11.616;2023-06-05T00:29:01;8.57;;;6.10;;
9224;SDS011;4647;48.072;11.616;2023-06-05T00:31:31;9.70;;;6.00;;
9224;SDS011;4647;48.072;11.616;2023-06-05T00:34:00;6.37;;;5.77;;
9224;SDS011;4647;48.072;11.616;2023-06-05T00:36:28;7.97;;;6.10;;
9224;SDS011;4647;48.072;11.616;2023-06-05T00:38:57;7.77;;;5.97;;
9224;SDS011;4647;48.072;11.616;2023-06-05T00:41:29;7.73;;;6.10;;
9224;SDS011;4647;48.072;11.616;2023-06-05T00:43:57;7.07;;;6.37;;
9224;SDS011;4647;48.072;11.616;2023-06-05T00:46:26;8.13;;;7.13;;
9224;SDS011;4647;48.072;11.616;2023-06-05T00:48:54;11.07;;;6.70;;
9224;SDS011;4647;48.072;11.616;2023-06-05T00:51:23;9.17;;;7.57;;
9224;SDS011;4647;48.072;11.616;2023-06-05T00:53:52;10.27;;;6.30;;
9224;SDS011;4647;48.072;11.616;2023-06-05T00:56:20;8.53;;;6.57;;
9224;SDS011;4647;48.072;11.616;2023-06-05T00:58:52;11.27;;;7.27;;
9224;SDS011;4647;48.072;11.616;2023-06-05T01:01:23;9.63;;;7.20;;
9224;SDS011;4647;48.072;11.616;2023-06-05T01:03:53;7.83;;;7.00;;
9224;SDS011;4647;48.072;11.616;2023-06-05T01:06:23;10.50;;;7.30;;
9224;SDS011;4647;48.072;11.616;2023-06-05T01:08:52;8.07;;;7.27;;
9224;SDS011;4647;48.072;11.616;2023-06-05T01:11:23;11.23;;;7.10;;
9224;SDS011;4647;48.072;11.616;2023-06-05T01:14:01;8.03;;;7.23;;
9224;SDS011;4647;48.072;11.616;2023-06-05T01:16:47;11.90;;;7.63;;
9224;SDS011;4647;48.072;11.616;2023-06-05T01:19:19;11.47;;;8.00;;
9224;SDS011;4647;48.072;11.616;2023-06-05T01:21:49;7.97;;;7.20;;
9224;SDS011;4647;48.072;11.616;2023-06-05T01:24:21;10.70;;;7.63;;
9224;SDS011;4647;48.072;11.616;2023-06-05T01:26:53;13.03;;;8.30;;
9224;SDS011;4647;48.072;11.616;2023-06-05T01:29:32;14.10;;;8.17;;
9224;SDS011;4647;48.072;11.616;2023-06-05T01:32:07;8.60;;;7.53;;
9224;SDS011;4647;48.072;11.616;2023-06-05T01:34:43;10.50;;;8.37;;
9224;SDS011;4647;48.072;11.616;2023-06-05T01:37:13;12.33;;;8.63;;
9224;SDS011;4647;48.072;11.616;2023-06-05T01:39:46;10.20;;;8.50;;
9224;SDS011;4647;48.072;11.616;2023-06-05T01:42:15;10.47;;;8.83;;
9224;SDS011;4647;48.072;11.616;2023-06-05T01:44:44;9.87;;;8.30;;
9224;SDS011;4647;48.072;11.616;2023-06-05T01:47:13;12.17;;;8.63;;
9224;SDS011;4647;48.072;11.616;2023-06-05T01:49:42;9.93;;;8.37;;
9224;SDS011;4647;48.072;11.616;2023-06-05T01:52:11;9.67;;;8.73;;
9224;SDS011;4647;48.072;11.616;2023-06-05T01:54:39;9.60;;;8.60;;
9224;SDS011;4647;48.072;11.616;2023-06-05T01:57:10;10.63;;;9.07;;
9224;SDS011;4647;48.072;11.616;2023-06-05T01:59:40;9.37;;;8.57;;
9224;SDS011;4647;48.072;11.616;2023-06-05T02:02:08;9.83;;;8.30;;
9224;SDS011;4647;48.072;11.616;2023-06-05T02:04:37;13.23;;;9.97;;
9224;SDS011;4647;48.072;11.616;2023-06-05T02:07:05;10.63;;;8.70;;
9224;SDS011;4647;48.072;11.616;2023-06-05T02:09:34;11.50;;;9.53;;
9224;SDS011;4647;48.072;11.616;2023-06-05T02:12:02;10.63;;;9.67;;
9224;SDS011;4647;48.072;11.616;2023-06-05T02:14:35;9.37;;;8.57;;
9224;SDS011;4647;48.072;11.616;2023-06-05T02:17:04;9.70;;;8.77;;
9224;SDS011;4647;48.072;11.616;2023-06-05T02:19:33;9.53;;;8.53;;
9224;SDS011;4647;48.072;11.616;2023-06-05T02:22:01;10.30;;;8.70;;
9224;SDS011;4647;48.072;11.616;2023-06-05T02:24:30;10.43;;;9.40;;
9224;SDS011;4647;48.072;11.616;2023-06-05T02:27:01;10.17;;;9.17;;
9224;SDS011;4647;48.072;11.616;2023-06-05T02:29:30;13.70;;;9.13;;
9224;SDS011;4647;48.072;11.616;2023-06-05T02:32:01;9.80;;;8.90;;
9224;SDS011;4647;48.072;11.616;2023-06-05T02:34:30;10.03;;;8.97;;
9224;SDS011;4647;48.072;11.616;2023-06-05T02:36:59;9.30;;;8.40;;
9224;SDS011;4647;48.072;11.616;2023-06-05T02:39:27;10.53;;;9.53;;
9224;SDS011;4647;48.072;11.616;2023-06-05T02:41:57;10.70;;;9.70;;
9224;SDS011;4647;48.072;11.616;2023-06-05T02:44:26;11.23;;;8.80;;
9224;SDS011;4647;48.072;11.616;2023-06-05T02:46:54;10.20;;;9.27;;
9224;SDS011;4647;48.072;11.616;2023-06-05T02:49:25;10.10;;;8.90;;
9224;SDS011;4647;48.072;11.616;2023-06-05T02:51:54;11.47;;;9.13;;
9224;SDS011;4647;48.072;11.616;2023-06-05T02:54:22;13.20;;;8.90;;
9224;SDS011;4647;48.072;11.616;2023-06-05T02:56:53;9.77;;;8.90;;
9224;SDS011;4647;48.072;11.616;2023-06-05T02:59:25;9.53;;;8.53;;
9224;SDS011;4647;48.072;11.616;2023-06-05T03:01:57;10.60;;;9.60;;
9224;SDS011;4647;48.072;11.616;2023-06-05T03:04:28;10.73;;;9.67;;
9224;SDS011;4647;48.072;11.616;2023-06-05T03:06:58;10.50;;;9.50;;
9224;SDS011;4647;48.072;11.616;2023-06-05T03:09:29;11.37;;;9.40;;
9224;SDS011;4647;48.072;11.616;2023-06-05T03:11:57;13.43;;;9.87;;
9224;SDS011;4647;48.072;11.616;2023-06-05T03:14:26;12.73;;;10.07;;
9224;SDS011;4647;48.072;11.616;2023-06-05T03:16:56;11.90;;;9.87;;
9224;SDS011;4647;48.072;11.616;2023-06-05T03:19:27;11.77;;;10.60;;
9224;SDS011;4647;48.072;11.616;2023-06-05T03:21:56;10.30;;;9.20;;
9224;SDS011;4647;48.072;11.616;2023-06-05T03:24:24;10.77;;;9.67;;
9224;SDS011;4647;48.072;11.616;2023-06-05T03:26:53;10.97;;;9.67;;
9224;SDS011;4647;48.072;11.616;2023-06-05T03:29:22;16.33;;;9.73;;
9224;SDS011;4647;48.072;11.616;2023-06-05T03:31:51;14.83;;;10.13;;
9224;SDS011;4647;48.072;11.616;2023-06-05T03:34:19;12.80;;;10.83;;
9224;SDS011;4647;48.072;11.616;2023-06-05T03:36:55;13.87;;;12.00;;
9224;SDS011;4647;48.072;11.616;2023-06-05T03:39:24;11.70;;;10.70;;
9224;SDS011;4647;48.072;11.616;2023-06-05T03:41:53;12.40;;;11.13;;
9224;SDS011;4647;48.072;11.616;2023-06-05T03:44:21;12.33;;;11.13;;
9224;SDS011;4647;48.072;11.616;2023-06-05T03:46:50;12.30;;;10.97;;
9224;SDS011;4647;48.072;11.616;2023-06-05T03:49:19;12.60;;;11.30;;
9224;SDS011;4647;48.072;11.616;2023-06-05T03:51:47;12.97;;;10.70;;
9224;SDS011;4647;48.072;11.616;2023-06-05T03:54:19;13.67;;;11.40;;
9224;SDS011;4647;48.072;11.616;2023-06-05T03:56:51;12.03;;;10.90;;
9224;SDS011;4647;48.072;11.616;2023-06-05T03:59:20;13.53;;;12.17;;
9224;SDS011;4647;48.072;11.616;2023-06-05T04:01:50;13.47;;;12.20;;
9224;SDS011;4647;48.072;11.616;2023-06-05T04:04:19;12.67;;;11.00;;
9224;SDS011;4647;48.072;11.616;2023-06-05T04:06:48;13.13;;;10.70;;
9224;SDS011;4647;48.072;11.616;2023-06-05T04:09:17;11.50;;;10.30;;
9224;SDS011;4647;48.072;11.616;2023-06-05T04:11:48;11.60;;;10.23;;
9224;SDS011;4647;48.072;11.616;2023-06-05T04:14:17;13.67;;;12.00;;
9224;SDS011;4647;48.072;11.616;2023-06-05T04:16:46;12.63;;;11.33;;
9224;SDS011;4647;48.072;11.616;2023-06-05T04:19:14;14.70;;;12.30;;
9224;SDS011;4647;48.072;11.616;2023-06-05T04:21:43;13.70;;;11.60;;
9224;SDS011;4647;48.072;11.616;2023-06-05T04:24:11;13.70;;;11.37;;
9224;SDS011;4647;48.072;11.616;2023-06-05T04:26:43;15.67;;;10.63;;
9224;SDS011;4647;48.072;11.616;2023-06-05T04:29:12;13.17;;;10.70;;
9224;SDS011;4647;48.072;11.616;2023-06-05T04:31:41;13.33;;;11.80;;
9224;SDS011;4647;48.072;11.616;2023-06-05T04:34:11;13.83;;;12.27;;
9224;SDS011;4647;48.072;11.616;2023-06-05T04:36:39;12.33;;;11.30;;
9224;SDS011;4647;48.072;11.616;2023-06-05T04:39:08;15.13;;;11.47;;
9224;SDS011;4647;48.072;11.616;2023-06-05T04:41:39;15.27;;;12.53;;
9224;SDS011;4647;48.072;11.616;2023-06-05T04:44:11;17.63;;;12.27;;
9224;SDS011;4647;48.072;11.616;2023-06-05T04:46:41;18.07;;;13.53;;
9224;SDS011;4647;48.072;11.616;2023-06-05T04:49:10;13.53;;;12.03;;
9224;SDS011;4647;48.072;11.616;2023-06-05T04:51:39;18.00;;;13.10;;
9224;SDS011;4647;48.072;11.616;2023-06-05T04:54:09;15.30;;;11.77;;
9224;SDS011;4647;48.072;11.616;2023-06-05T04:56:37;16.13;;;11.80;;
9224;SDS011;4647;48.072;11.616;2023-06-05T04:59:08;16.33;;;11.07;;
9224;SDS011;4647;48.072;11.616;2023-06-05T05:04:12;20.13;;;10.90;;
9224;SDS011;4647;48.072;11.616;2023-06-05T05:06:46;13.07;;;11.03;;
9224;SDS011;4647;48.072;11.616;2023-06-05T05:09:27;24.07;;;10.80;;
9224;SDS011;4647;48.072;11.616;2023-06-05T05:11:59;27.60;;;12.00;;
9224;SDS011;4647;48.072;11.616;2023-06-05T05:14:37;23.30;;;12.43;;
9224;SDS011;4647;48.072;11.616;2023-06-05T05:17:12;14.43;;;10.83;;
9224;SDS011;4647;48.072;11.616;2023-06-05T05:19:44;17.47;;;10.73;;
9224;SDS011;4647;48.072;11.616;2023-06-05T05:22:20;15.93;;;10.23;;
9224;SDS011;4647;48.072;11.616;2023-06-05T05:24:49;23.83;;;12.40;;
9224;SDS011;4647;48.072;11.616;2023-06-05T05:27:18;19.70;;;11.40;;
9224;SDS011;4647;48.072;11.616;2023-06-05T05:32:38;22.73;;;11.47;;
9224;SDS011;4647;48.072;11.616;2023-06-05T05:35:08;12.53;;;10.67;;
9224;SDS011;4647;48.072;11.616;2023-06-05T05:37:38;15.20;;;10.60;;
9224;SDS011;4647;48.072;11.616;2023-06-05T05:40:16;17.13;;;9.83;;
9224;SDS011;4647;48.072;11.616;2023-06-05T05:42:45;10.53;;;9.43;;
9224;SDS011;4647;48.072;11.616;2023-06-05T05:45:22;12.13;;;9.43;;
9224;SDS011;4647;48.072;11.616;2023-06-05T05:47:51;12.23;;;9.97;;
9224;SDS011;4647;48.072;11.616;2023-06-05T05:50:23;13.27;;;9.40;;
9224;SDS011;4647;48.072;11.616;2023-06-05T05:52:54;14.40;;;9.00;;
9224;SDS011;4647;48.072;11.616;2023-06-05T05:55:24;10.47;;;9.17;;
9224;SDS011;4647;48.072;11.616;2023-06-05T05:57:53;10.57;;;8.17;;
9224;SDS011;4647;48.072;11.616;2023-06-05T06:00:41;17.10;;;8.40;;
9224;SDS011;4647;48.072;11.616;2023-06-05T06:03:13;11.07;;;8.70;;
9224;SDS011;4647;48.072;11.616;2023-06-05T06:05:45;9.40;;;8.50;;
9224;SDS011;4647;48.072;11.616;2023-06-05T06:08:26;12.00;;;8.70;;
9224;SDS011;4647;48.072;11.616;2023-06-05T06:10:58;11.87;;;9.17;;
9224;SDS011;4647;48.072;11.616;2023-06-05T06:13:29;15.33;;;9.83;;
9224;SDS011;4647;48.072;11.616;2023-06-05T06:16:01;9.63;;;8.73;;
9224;SDS011;4647;48.072;11.616;2023-06-05T06:18:30;10.03;;;9.00;;
9224;SDS011;4647;48.072;11.616;2023-06-05T06:20:58;9.47;;;8.30;;
9224;SDS011;4647;48.072;11.616;2023-06-05T06:23:28;10.70;;;8.97;;
9224;SDS011;4647;48.072;11.616;2023-06-05T06:25:57;13.23;;;9.00;;
9224;SDS011;4647;48.072;11.616;2023-06-05T06:28:26;15.17;;;8.80;;
9224;SDS011;4647;48.072;11.616;2023-06-05T06:30:55;11.87;;;8.33;;
9224;SDS011;4647;48.072;11.616;2023-06-05T06:33:27;10.90;;;8.60;;
9224;SDS011;4647;48.072;11.616;2023-06-05T06:35:56;12.13;;;9.27;;
9224;SDS011;4647;48.072;11.616;2023-06-05T06:38:25;15.00;;;9.40;;
9224;SDS011;4647;48.072;11.616;2023-06-05T06:40:55;12.60;;;8.97;;
9224;SDS011;4647;48.072;11.616;2023-06-05T06:43:24;18.23;;;8.60;;
9224;SDS011;4647;48.072;11.616;2023-06-05T06:45:53;14.17;;;9.23;;
9224;SDS011;4647;48.072;11.616;2023-06-05T06:48:22;11.63;;;9.30;;
9224;SDS011;4647;48.072;11.616;2023-06-05T06:50:53;11.17;;;9.60;;
9224;SDS011;4647;48.072;11.616;2023-06-05T06:53:22;14.07;;;10.47;;
9224;SDS011;4647;48.072;11.616;2023-06-05T06:55:50;9.43;;;8.33;;
9224;SDS011;4647;48.072;11.616;2023-06-05T06:58:19;9.87;;;8.57;;
9224;SDS011;4647;48.072;11.616;2023-06-05T07:00:49;9.83;;;8.27;;
9224;SDS011;4647;48.072;11.616;2023-06-05T07:03:19;11.43;;;8.03;;
9224;SDS011;4647;48.072;11.616;2023-06-05T07:05:49;11.77;;;7.97;;
9224;SDS011;4647;48.072;11.616;2023-06-05T07:08:22;10.30;;;8.30;;
9224;SDS011;4647;48.072;11.616;2023-06-05T07:10:50;12.33;;;8.43;;
9224;SDS011;4647;48.072;11.616;2023-06-05T07:13:21;10.73;;;8.30;;
9224;SDS011;4647;48.072;11.616;2023-06-05T07:15:51;8.13;;;7.33;;
9224;SDS011;4647;48.072;11.616;2023-06-05T07:18:20;9.07;;;7.87;;
9224;SDS011;4647;48.072;11.616;2023-06-05T07:20:52;10.27;;;9.10;;
9224;SDS011;4647;48.072;11.616;2023-06-05T07:23:23;8.63;;;7.83;;
9224;SDS011;4647;48.072;11.616;2023-06-05T07:25:52;10.67;;;8.40;;
9224;SDS011;4647;48.072;11.616;2023-06-05T07:28:23;9.83;;;8.83;;
9224;SDS011;4647;48.072;11.616;2023-06-05T07:30:52;12.13;;;8.30;;
9224;SDS011;4647;48.072;11.616;2023-06-05T07:33:23;9.07;;;8.17;;
9224;SDS011;4647;48.072;11.616;2023-06-05T07:35:51;13.97;;;8.57;;
9224;SDS011;4647;48.072;11.616;2023-06-05T07:38:23;12.63;;;8.83;;
9224;SDS011;4647;48.072;11.616;2023-06-05T07:40:55;10.40;;;8.47;;
9224;SDS011;4647;48.072;11.616;2023-06-05T07:43:27;8.70;;;7.90;;
9224;SDS011;4647;48.072;11.616;2023-06-05T07:45:59;8.30;;;7.50;;
9224;SDS011;4647;48.072;11.616;2023-06-05T07:48:30;11.50;;;8.43;;
9224;SDS011;4647;48.072;11.616;2023-06-05T07:51:01;12.93;;;8.57;;
9224;SDS011;4647;48.072;11.616;2023-06-05T07:53:33;9.23;;;8.43;;
9224;SDS011;4647;48.072;11.616;2023-06-05T07:56:01;11.20;;;8.30;;
9224;SDS011;4647;48.072;11.616;2023-06-05T07:58:30;11.93;;;9.00;;
9224;SDS011;4647;48.072;11.616;2023-06-05T08:01:00;13.40;;;8.80;;
9224;SDS011;4647;48.072;11.616;2023-06-05T08:03:28;13.47;;;9.33;;
9224;SDS011;4647;48.072;11.616;2023-06-05T08:05:57;11.20;;;8.73;;
9224;SDS011;4647;48.072;11.616;2023-06-05T08:08:27;10.63;;;8.43;;
9224;SDS011;4647;48.072;11.616;2023-06-05T08:11:00;18.37;;;8.50;;
9224;SDS011;4647;48.072;11.616;2023-06-05T08:13:29;9.97;;;8.67;;
9224;SDS011;4647;48.072;11.616;2023-06-05T08:15:57;12.27;;;7.63;;
9224;SDS011;4647;48.072;11.616;2023-06-05T08:18:27;10.80;;;9.70;;
9224;SDS011;4647;48.072;11.616;2023-06-05T08:20:56;14.83;;;8.90;;
9224;SDS011;4647;48.072;11.616;2023-06-05T08:23:27;11.50;;;7.67;;
9224;SDS011;4647;48.072;11.616;2023-06-05T08:26:01;12.73;;;8.17;;
9224;SDS011;4647;48.072;11.616;2023-06-05T08:28:37;10.00;;;8.40;;
9224;SDS011;4647;48.072;11.616;2023-06-05T08:31:10;9.80;;;8.80;;
9224;SDS011;4647;48.072;11.616;2023-06-05T08:33:42;11.57;;;8.70;;
9224;SDS011;4647;48.072;11.616;2023-06-05T08:36:13;13.30;;;8.20;;
9224;SDS011;4647;48.072;11.616;2023-06-05T08:39:10;11.57;;;8.87;;
9224;SDS011;4647;48.072;11.616;2023-06-05T08:41:45;8.30;;;7.33;;
9224;SDS011;4647;48.072;11.616;2023-06-05T08:44:27;14.47;;;7.50;;
9224;SDS011;4647;48.072;11.616;2023-06-05T08:47:00;9.77;;;8.40;;
9224;SDS011;4647;48.072;11.616;2023-06-05T08:49:32;13.10;;;8.30;;
9224;SDS011;4647;48.072;11.616;2023-06-05T08:52:06;10.03;;;8.33;;
9224;SDS011;4647;48.072;11.616;2023-06-05T08:54:38;9.60;;;7.70;;
9224;SDS011;4647;48.072;11.616;2023-06-05T08:57:10;8.87;;;8.07;;
9224;SDS011;4647;48.072;11.616;2023-06-05T08:59:41;12.67;;;7.20;;
9224;SDS011;4647;48.072;11.616;2023-06-05T09:02:11;10.90;;;8.07;;
9224;SDS011;4647;48.072;11.616;2023-06-05T09:04:42;8.00;;;7.20;;
9224;SDS011;4647;48.072;11.616;2023-06-05T09:07:11;8.13;;;7.07;;
9224;SDS011;4647;48.072;11.616;2023-06-05T09:09:40;10.17;;;7.57;;
9224;SDS011;4647;48.072;11.616;2023-06-05T09:12:13;9.60;;;7.17;;
9224;SDS011;4647;48.072;11.616;2023-06-05T09:14:42;21.90;;;7.43;;
9224;SDS011;4647;48.072;11.616;2023-06-05T09:17:14;8.47;;;7.17;;
9224;SDS011;4647;48.072;11.616;2023-06-05T09:19:43;11.33;;;7.07;;
9224;SDS011;4647;48.072;11.616;2023-06-05T09:22:16;7.80;;;6.27;;
9224;SDS011;4647;48.072;11.616;2023-06-05T09:25:01;13.87;;;6.97;;
9224;SDS011;4647;48.072;11.616;2023-06-05T09:27:37;9.90;;;6.90;;
9224;SDS011;4647;48.072;11.616;2023-06-05T09:30:07;16.07;;;7.00;;
9224;SDS011;4647;48.072;11.616;2023-06-05T09:32:39;8.43;;;6.60;;
9224;SDS011;4647;48.072;11.616;2023-06-05T09:35:12;10.30;;;6.90;;
9224;SDS011;4647;48.072;11.616;2023-06-05T09:37:46;8.63;;;6.43;;
9224;SDS011;4647;48.072;11.616;2023-06-05T09:40:17;9.17;;;5.83;;
9224;SDS011;4647;48.072;11.616;2023-06-05T09:43:15;8.17;;;5.77;;
9224;SDS011;4647;48.072;11.616;2023-06-05T09:45:50;7.30;;;6.60;;
9224;SDS011;4647;48.072;11.616;2023-06-05T09:48:19;8.73;;;6.23;;
9224;SDS011;4647;48.072;11.616;2023-06-05T09:50:50;8.90;;;6.23;;
9224;SDS011;4647;48.072;11.616;2023-06-05T09:53:19;6.40;;;5.80;;
9224;SDS011;4647;48.072;11.616;2023-06-05T09:55:50;8.17;;;6.07;;
9224;SDS011;4647;48.072;11.616;2023-06-05T09:58:24;10.73;;;7.37;;
9224;SDS011;4647;48.072;11.616;2023-06-05T10:00:56;10.00;;;6.80;;
9224;SDS011;4647;48.072;11.616;2023-06-05T10:03:28;9.17;;;6.70;;
9224;SDS011;4647;48.072;11.616;2023-06-05T10:05:57;11.17;;;6.70;;
9224;SDS011;4647;48.072;11.616;2023-06-05T10:08:28;8.53;;;6.83;;
9224;SDS011;4647;48.072;11.616;2023-06-05T10:11:02;8.17;;;6.10;;
9224;SDS011;4647;48.072;11.616;2023-06-05T10:13:35;7.87;;;6.53;;
9224;SDS011;4647;48.072;11.616;2023-06-05T10:16:06;7.63;;;6.17;;
9224;SDS011;4647;48.072;11.616;2023-06-05T10:18:36;9.23;;;6.90;;
9224;SDS011;4647;48.072;11.616;2023-06-05T10:21:05;7.27;;;6.57;;
9224;SDS011;4647;48.072;11.616;2023-06-05T10:23:35;8.57;;;7.00;;
9224;SDS011;4647;48.072;11.616;2023-06-05T10:26:05;7.00;;;6.20;;
9224;SDS011;4647;48.072;11.616;2023-06-05T10:28:49;13.37;;;6.90;;
9224;SDS011;4647;48.072;11.616;2023-06-05T10:31:32;9.13;;;6.27;;
9224;SDS011;4647;48.072;11.616;2023-06-05T10:34:13;7.53;;;6.13;;
9224;SDS011;4647;48.072;11.616;2023-06-05T10:37:12;10.63;;;6.63;;
9224;SDS011;4647;48.072;11.616;2023-06-05T10:39:57;6.70;;;6.00;;
9224;SDS011;4647;48.072;11.616;2023-06-05T10:42:26;12.30;;;6.40;;
9224;SDS011;4647;48.072;11.616;2023-06-05T10:44:58;11.27;;;6.17;;
9224;SDS011;4647;48.072;11.616;2023-06-05T10:50:19;7.23;;;5.90;;
9224;SDS011;4647;48.072;11.616;2023-06-05T10:52:51;6.47;;;5.77;;
9224;SDS011;4647;48.072;11.616;2023-06-05T10:55:23;9.00;;;5.70;;
9224;SDS011;4647;48.072;11.616;2023-06-05T10:58:02;6.97;;;5.53;;
9224;SDS011;4647;48.072;11.616;2023-06-05T11:00:35;6.70;;;5.87;;
9224;SDS011;4647;48.072;11.616;2023-06-05T11:03:05;8.67;;;5.30;;
9224;SDS011;4647;48.072;11.616;2023-06-05T11:05:34;6.27;;;5.77;;
9224;SDS011;4647;48.072;11.616;2023-06-05T11:08:23;10.37;;;6.50;;
9224;SDS011;4647;48.072;11.616;2023-06-05T11:11:02;7.20;;;6.23;;
9224;SDS011;4647;48.072;11.616;2023-06-05T11:16:31;9.33;;;5.83;;
9224;SDS011;4647;48.072;11.616;2023-06-05T11:22:06;8.73;;;5.83;;
9224;SDS011;4647;48.072;11.616;2023-06-05T11:24:41;8.23;;;5.53;;
9224;SDS011;4647;48.072;11.616;2023-06-05T11:27:40;8.23;;;5.33;;
9224;SDS011;4647;48.072;11.616;2023-06-05T11:30:14;5.90;;;4.77;;
9224;SDS011;4647;48.072;11.616;2023-06-05T11:32:49;6.40;;;5.40;;
9224;SDS011;4647;48.072;11.616;2023-06-05T11:35:24;8.10;;;5.47;;
9224;SDS011;4647;48.072;11.616;2023-06-05T11:38:08;6.47;;;5.00;;
9224;SDS011;4647;48.072;11.616;2023-06-05T11:40:43;10.77;;;5.40;;
9224;SDS011;4647;48.072;11.616;2023-06-05T11:43:12;7.37;;;5.10;;
9224;SDS011;4647;48.072;11.616;2023-06-05T11:45:48;9.40;;;5.40;;
9224;SDS011;4647;48.072;11.616;2023-06-05T11:48:21;8.53;;;5.30;;
9224;SDS011;4647;48.072;11.616;2023-06-05T11:50:53;5.10;;;4.63;;
9224;SDS011;4647;48.072;11.616;2023-06-05T11:53:25;5.77;;;4.97;;
9224;SDS011;4647;48.072;11.616;2023-06-05T11:55:54;5.07;;;4.57;;
9224;SDS011;4647;48.072;11.616;2023-06-05T11:58:34;8.60;;;4.80;;
9224;SDS011;4647;48.072;11.616;2023-06-05T12:01:05;5.37;;;4.87;;
9224;SDS011;4647;48.072;11.616;2023-06-05T12:03:40;5.87;;;5.27;;
9224;SDS011;4647;48.072;11.616;2023-06-05T12:06:16;7.53;;;4.90;;
9224;SDS011;4647;48.072;11.616;2023-06-05T12:08:47;6.00;;;5.20;;
9224;SDS011;4647;48.072;11.616;2023-06-05T12:11:21;9.43;;;5.30;;
9224;SDS011;4647;48.072;11.616;2023-06-05T12:13:51;6.60;;;5.30;;
9224;SDS011;4647;48.072;11.616;2023-06-05T12:16:30;8.50;;;5.40;;
9224;SDS011;4647;48.072;11.616;2023-06-05T12:19:10;8.43;;;5.80;;
9224;SDS011;4647;48.072;11.616;2023-06-05T12:21:40;5.70;;;5.10;;
9224;SDS011;4647;48.072;11.616;2023-06-05T12:24:10;9.53;;;5.20;;
9224;SDS011;4647;48.072;11.616;2023-06-05T12:26:52;8.50;;;5.20;;
9224;SDS011;4647;48.072;11.616;2023-06-05T12:29:23;7.70;;;5.40;;
9224;SDS011;4647;48.072;11.616;2023-06-05T12:31:53;6.30;;;4.90;;
9224;SDS011;4647;48.072;11.616;2023-06-05T12:37:10;8.40;;;5.40;;
9224;SDS011;4647;48.072;11.616;2023-06-05T12:39:39;7.67;;;5.30;;
9224;SDS011;4647;48.072;11.616;2023-06-05T12:42:08;11.07;;;5.70;;
9224;SDS011;4647;48.072;11.616;2023-06-05T12:44:37;9.60;;;5.53;;
9224;SDS011;4647;48.072;11.616;2023-06-05T12:47:10;9.87;;;5.53;;
9224;SDS011;4647;48.072;11.616;2023-06-05T12:49:42;11.40;;;5.00;;
9224;SDS011;4647;48.072;11.616;2023-06-05T12:52:13;6.77;;;4.87;;
9224;SDS011;4647;48.072;11.616;2023-06-05T12:54:42;17.23;;;4.97;;
9224;SDS011;4647;48.072;11.616;2023-06-05T12:57:11;5.77;;;4.53;;
9224;SDS011;4647;48.072;11.616;2023-06-05T12:59:40;7.83;;;5.47;;
9224;SDS011;4647;48.072;11.616;2023-06-05T13:02:10;7.77;;;6.13;;
9224;SDS011;4647;48.072;11.616;2023-06-05T13:04:42;7.10;;;5.30;;
9224;SDS011;4647;48.072;11.616;2023-06-05T13:07:11;8.07;;;5.70;;
9224;SDS011;4647;48.072;11.616;2023-06-05T13:09:42;11.77;;;5.80;;
9224;SDS011;4647;48.072;11.616;2023-06-05T13:12:10;6.67;;;5.30;;
9224;SDS011;4647;48.072;11.616;2023-06-05T13:14:42;10.27;;;5.33;;
9224;SDS011;4647;48.072;11.616;2023-06-05T13:17:11;7.80;;;5.33;;
9224;SDS011;4647;48.072;11.616;2023-06-05T13:19:42;12.07;;;5.30;;
9224;SDS011;4647;48.072;11.616;2023-06-05T13:22:13;8.93;;;4.97;;
9224;SDS011;4647;48.072;11.616;2023-06-05T13:24:43;7.20;;;5.33;;
9224;SDS011;4647;48.072;11.616;2023-06-05T13:27:14;13.87;;;4.97;;
9224;SDS011;4647;48.072;11.616;2023-06-05T13:29:44;13.30;;;4.87;;
9224;SDS011;4647;48.072;11.616;2023-06-05T13:32:14;6.67;;;4.80;;
9224;SDS011;4647;48.072;11.616;2023-06-05T13:34:45;8.03;;;4.37;;
9224;SDS011;4647;48.072;11.616;2023-06-05T13:37:19;5.90;;;4.47;;
9224;SDS011;4647;48.072;11.616;2023-06-05T13:39:49;6.37;;;4.43;;
9224;SDS011;4647;48.072;11.616;2023-06-05T13:42:28;6.40;;;4.50;;
9224;SDS011;4647;48.072;11.616;2023-06-05T13:44:57;11.43;;;5.20;;
9224;SDS011;4647;48.072;11.616;2023-06-05T13:47:26;5.50;;;4.10;;
9224;SDS011;4647;48.072;11.616;2023-06-05T13:49:57;6.20;;;4.30;;
9224;SDS011;4647;48.072;11.616;2023-06-05T13:52:26;6.97;;;4.00;;
9224;SDS011;4647;48.072;11.616;2023-06-05T13:54:55;8.10;;;4.30;;
9224;SDS011;4647;48.072;11.616;2023-06-05T13:57:23;6.40;;;3.80;;
9224;SDS011;4647;48.072;11.616;2023-06-05T13:59:52;7.20;;;4.43;;
9224;SDS011;4647;48.072;11.616;2023-06-05T14:02:21;8.07;;;4.23;;
9224;SDS011;4647;48.072;11.616;2023-06-05T14:04:49;4.70;;;4.20;;
9224;SDS011;4647;48.072;11.616;2023-06-05T14:07:20;5.83;;;4.03;;
9224;SDS011;4647;48.072;11.616;2023-06-05T14:09:49;5.70;;;4.50;;
9224;SDS011;4647;48.072;11.616;2023-06-05T14:12:18;8.73;;;4.40;;
9224;SDS011;4647;48.072;11.616;2023-06-05T14:14:47;5.27;;;4.63;;
9224;SDS011;4647;48.072;11.616;2023-06-05T14:17:15;7.20;;;4.50;;
9224;SDS011;4647;48.072;11.616;2023-06-05T14:19:44;5.33;;;4.00;;
9224;SDS011;4647;48.072;11.616;2023-06-05T14:22:12;9.80;;;4.63;;
9224;SDS011;4647;48.072;11.616;2023-06-05T14:24:43;5.20;;;4.70;;
9224;SDS011;4647;48.072;11.616;2023-06-05T14:27:12;9.13;;;4.50;;
9224;SDS011;4647;48.072;11.616;2023-06-05T14:29:41;7.30;;;4.63;;
9224;SDS011;4647;48.072;11.616;2023-06-05T14:32:10;8.80;;;4.93;;
9224;SDS011;4647;48.072;11.616;2023-06-05T14:34:38;13.00;;;5.00;;
9224;SDS011;4647;48.072;11.616;2023-06-05T14:37:07;6.13;;;5.30;;
9224;SDS011;4647;48.072;11.616;2023-06-05T14:39:35;6.77;;;5.50;;
9224;SDS011;4647;48.072;11.616;2023-06-05T14:42:07;15.30;;;6.17;;
9224;SDS011;4647;48.072;11.616;2023-06-05T14:44:36;7.77;;;4.70;;
9224;SDS011;4647;48.072;11.616;2023-06-05T14:47:05;12.60;;;5.40;;
9224;SDS011;4647;48.072;11.616;2023-06-05T14:49:34;6.47;;;5.27;;
9224;SDS011;4647;48.072;11.616;2023-06-05T14:52:03;8.57;;;5.20;;
9224;SDS011;4647;48.072;11.616;2023-06-05T14:54:32;7.17;;;5.37;;
9224;SDS011;4647;48.072;11.616;2023-06-05T14:57:00;8.97;;;5.87;;
9224;SDS011;4647;48.072;11.616;2023-06-05T14:59:33;10.90;;;5.60;;
9224;SDS011;4647;48.072;11.616;2023-06-05T15:02:02;7.30;;;5.40;;
9224;SDS011;4647;48.072;11.616;2023-06-05T15:04:30;6.00;;;5.37;;
9224;SDS011;4647;48.072;11.616;2023-06-05T15:06:59;7.67;;;5.43;;
9224;SDS011;4647;48.072;11.616;2023-06-05T15:09:28;9.73;;;5.47;;
9224;SDS011;4647;48.072;11.616;2023-06-05T15:11:57;7.30;;;5.43;;
9224;SDS011;4647;48.072;11.616;2023-06-05T15:14:25;6.57;;;5.40;;
9224;SDS011;4647;48.072;11.616;2023-06-05T15:16:56;6.13;;;5.53;;
9224;SDS011;4647;48.072;11.616;2023-06-05T15:19:27;6.50;;;5.43;;
9224;SDS011;4647;48.072;11.616;2023-06-05T15:21:55;7.23;;;5.03;;
9224;SDS011;4647;48.072;11.616;2023-06-05T15:24:27;11.03;;;4.70;;
9224;SDS011;4647;48.072;11.616;2023-06-05T15:26:57;7.53;;;5.27;;
9224;SDS011;4647;48.072;11.616;2023-06-05T15:29:26;7.67;;;5.43;;
9224;SDS011;4647;48.072;11.616;2023-06-05T15:31:57;9.90;;;5.80;;
9224;SDS011;4647;48.072;11.616;2023-06-05T15:34:28;7.33;;;5.90;;